Indianapolis, Indiana
Traffic Map
Current Weather Conditions
Indianapolis, Indiana
Clear
Clear
16°
Feels Like: 16°
Wind Chill: 16° Ceiling: Unl
Heat Index: 16° Visibility: 10mi
Dew Point: Wind: 9mph
Humidity: 62% Direction: 140° (SE)
Pressure: 30.21in Gusts: 0mph
Raw Report DataKIND 240654Z 14008KT 10SM CLR 16/08 A3021 RMK AO2 SLP224 T01560083
Traffic Incident Summary
Active as of:
Severity:
Category:
InformationThere was an issue retrieving the traffic information for this location. Please try a different location or try again shortly.
Advertisements
Track Severe Weather on mobile